createdAt,value
2022-08-07T00:00:26.817Z,37.69
2022-08-07T00:02:57.013Z,37.64
2022-08-07T00:05:26.019Z,37.34
2022-08-07T00:08:00.102Z,37.73
2022-08-07T00:10:31.225Z,37.82
2022-08-07T00:13:17.362Z,37.88
2022-08-07T00:15:52.950Z,37.61
2022-08-07T00:18:24.049Z,37.81
2022-08-07T00:21:08.124Z,37.87
2022-08-07T00:23:51.754Z,37.96
2022-08-07T00:26:49.536Z,38.08
2022-08-07T00:29:06.212Z,38.32
2022-08-07T00:31:37.421Z,38.25
2022-08-07T00:34:08.846Z,38.46
2022-08-07T00:36:42.658Z,38.47
2022-08-07T00:39:17.103Z,38.52
2022-08-07T00:42:02.482Z,38.81
2022-08-07T00:44:41.282Z,38.63
2022-08-07T00:47:16.150Z,38.81
2022-08-07T00:50:20.546Z,38.68
2022-08-07T00:52:47.443Z,39.01
2022-08-07T00:55:17.526Z,38.91
2022-08-07T00:57:55.707Z,38.88
2022-08-07T01:00:23.933Z,38.75
2022-08-07T01:02:51.966Z,38.83
2022-08-07T01:05:20.980Z,38.97
2022-08-07T01:07:52.258Z,38.85
2022-08-07T01:10:20.934Z,38.82
2022-08-07T01:12:54.079Z,38.95
2022-08-07T01:15:35.765Z,38.70
2022-08-07T01:18:16.812Z,39.20
2022-08-07T01:21:05.709Z,38.94
2022-08-07T01:23:51.575Z,39.07
2022-08-07T01:26:21.018Z,39.00
2022-08-07T01:28:51.560Z,39.24
2022-08-07T01:31:41.837Z,39.39
2022-08-07T01:34:14.440Z,39.74
2022-08-07T01:36:44.226Z,39.63
2022-08-07T01:39:22.727Z,39.70
2022-08-07T01:42:39.014Z,39.80
2022-08-07T01:44:51.170Z,39.63
2022-08-07T01:48:18.954Z,39.74
2022-08-07T01:50:07.162Z,39.95
2022-08-07T01:52:39.269Z,39.62
2022-08-07T01:55:22.232Z,40.05
2022-08-07T01:58:06.195Z,39.97
2022-08-07T02:00:48.823Z,39.94
2022-08-07T02:03:21.672Z,40.02
2022-08-07T02:06:02.647Z,40.13
2022-08-07T02:08:54.374Z,40.04
2022-08-07T02:11:30.690Z,40.22
2022-08-07T02:14:35.476Z,40.39
2022-08-07T02:17:03.532Z,40.42
2022-08-07T02:20:04.109Z,40.66
2022-08-07T02:22:25.656Z,40.63
2022-08-07T02:24:56.460Z,40.61
2022-08-07T02:27:26.992Z,40.62
2022-08-07T02:30:07.111Z,40.76
2022-08-07T02:32:39.527Z,40.83
2022-08-07T02:36:30.487Z,41.08
2022-08-07T02:38:16.245Z,40.59
2022-08-07T02:40:46.647Z,40.53
2022-08-07T02:43:16.958Z,40.98
2022-08-07T02:45:58.231Z,40.70
2022-08-07T02:48:30.719Z,40.94
2022-08-07T02:51:03.430Z,41.07
2022-08-07T02:53:38.438Z,41.42
2022-08-07T02:56:21.104Z,41.36
2022-08-07T02:58:54.065Z,42.54
2022-08-07T03:01:36.304Z,41.64
2022-08-07T03:04:13.835Z,41.78
2022-08-07T03:06:46.098Z,42.24
2022-08-07T03:09:43.838Z,42.09
2022-08-07T03:12:19.181Z,42.11
2022-08-07T03:14:56.608Z,42.21
2022-08-07T03:17:24.581Z,41.92
2022-08-07T03:19:55.529Z,42.05
2022-08-07T03:22:29.507Z,42.40
2022-08-07T03:25:00.484Z,42.67
2022-08-07T03:27:42.184Z,42.66
2022-08-07T03:30:24.374Z,42.87
2022-08-07T03:32:58.891Z,42.48
2022-08-07T03:35:44.025Z,43.11
2022-08-07T03:38:20.963Z,42.98
2022-08-07T03:40:53.936Z,43.19
2022-08-07T03:43:32.494Z,43.05
2022-08-07T03:46:10.476Z,43.07
2022-08-07T03:49:02.845Z,42.99
2022-08-07T03:51:47.227Z,43.35
2022-08-07T03:54:35.336Z,43.08
2022-08-07T03:57:08.685Z,42.50
2022-08-07T03:59:46.740Z,43.48
2022-08-07T04:02:28.400Z,42.55
2022-08-07T04:04:57.091Z,43.83
2022-08-07T04:07:25.275Z,43.66
2022-08-07T04:10:04.328Z,43.11
2022-08-07T04:12:35.273Z,43.34
2022-08-07T04:15:05.011Z,44.02
2022-08-07T04:18:31.917Z,44.46
2022-08-07T04:20:25.379Z,44.25
2022-08-07T04:23:01.353Z,44.38
2022-08-07T04:25:39.366Z,44.21
2022-08-07T04:28:13.256Z,43.63
2022-08-07T04:30:51.259Z,44.32
2022-08-07T04:33:29.051Z,44.56
2022-08-07T04:35:59.004Z,44.63
2022-08-07T04:38:29.246Z,44.92
2022-08-07T04:40:58.059Z,44.56
2022-08-07T04:44:12.715Z,44.40
2022-08-07T04:47:04.155Z,44.00
2022-08-07T04:49:57.987Z,43.39
2022-08-07T04:52:52.041Z,43.43
2022-08-07T04:58:10.760Z,44.25
2022-08-07T04:58:42.419Z,43.08
2022-08-07T05:01:46.786Z,43.77
2022-08-07T05:04:36.448Z,42.55
2022-08-07T05:07:20.380Z,42.08
2022-08-07T05:09:51.392Z,42.50
2022-08-07T05:12:30.481Z,42.09
2022-08-07T05:15:23.423Z,42.27
2022-08-07T05:18:10.525Z,41.94
2022-08-07T05:20:45.254Z,42.81
2022-08-07T05:23:38.664Z,42.27
2022-08-07T05:26:18.905Z,41.75
2022-08-07T05:28:59.308Z,41.81
2022-08-07T05:31:38.742Z,42.00
2022-08-07T05:34:15.832Z,42.55
2022-08-07T05:36:53.982Z,43.72
2022-08-07T05:40:05.689Z,42.51
2022-08-07T05:42:34.947Z,42.08
2022-08-07T05:45:25.987Z,42.77
2022-08-07T05:48:05.500Z,42.12
2022-08-07T05:50:42.910Z,42.19
2022-08-07T05:54:12.866Z,42.34
2022-08-07T05:56:05.971Z,42.99
2022-08-07T05:58:40.756Z,42.44
2022-08-07T06:01:20.294Z,42.49
2022-08-07T06:03:58.653Z,42.51
2022-08-07T06:06:36.610Z,42.25
2022-08-07T06:09:08.240Z,42.71
2022-08-07T06:11:39.917Z,42.24
2022-08-07T06:14:12.788Z,41.91
2022-08-07T06:16:56.372Z,41.25
2022-08-07T06:19:47.904Z,39.80
2022-08-07T06:22:24.062Z,39.92
2022-08-07T06:25:14.993Z,39.24
2022-08-07T06:27:59.798Z,39.52
2022-08-07T06:30:35.710Z,39.20
2022-08-07T06:33:16.870Z,39.12
2022-08-07T06:36:12.946Z,39.16
2022-08-07T06:38:58.357Z,38.31
2022-08-07T06:42:00.815Z,37.35
2022-08-07T06:44:24.244Z,37.25
2022-08-07T06:46:53.794Z,37.74
2022-08-07T06:49:52.172Z,38.14
2022-08-07T06:52:35.778Z,37.39
2022-08-07T06:55:32.990Z,35.91
2022-08-07T06:58:10.506Z,36.46
2022-08-07T07:00:57.441Z,37.29
2022-08-07T07:03:39.923Z,36.83
2022-08-07T07:06:13.040Z,35.65
2022-08-07T07:08:46.722Z,35.69
2022-08-07T07:12:08.358Z,35.73
2022-08-07T07:14:08.423Z,35.26
2022-08-07T07:16:49.935Z,35.17
2022-08-07T07:19:55.204Z,34.91
2022-08-07T07:22:34.036Z,34.91
2022-08-07T07:26:30.449Z,34.72
2022-08-07T07:28:29.861Z,34.19
2022-08-07T07:31:11.184Z,34.71
2022-08-07T07:33:49.074Z,34.62
2022-08-07T07:36:32.207Z,35.32
2022-08-07T07:39:02.994Z,34.88
2022-08-07T07:42:02.237Z,34.59
2022-08-07T07:44:26.574Z,33.95
2022-08-07T07:47:04.413Z,33.22
2022-08-07T07:50:32.445Z,33.65
2022-08-07T07:52:32.967Z,34.15
2022-08-07T07:55:03.473Z,35.30
2022-08-07T07:57:51.683Z,35.21
2022-08-07T08:00:29.178Z,35.21
2022-08-07T08:03:06.093Z,35.43
2022-08-07T08:05:51.135Z,34.96
2022-08-07T08:08:35.058Z,33.60
2022-08-07T08:11:08.636Z,33.39
2022-08-07T08:13:54.483Z,32.90
2022-08-07T08:16:50.601Z,31.95
2022-08-07T08:20:18.552Z,32.67
2022-08-07T08:22:32.971Z,33.30
2022-08-07T08:25:41.769Z,33.05
2022-08-07T08:28:16.902Z,32.52
2022-08-07T08:31:05.213Z,32.17
2022-08-07T08:33:35.471Z,32.42
2022-08-07T08:36:10.811Z,32.25
2022-08-07T08:38:41.796Z,32.08
2022-08-07T08:41:23.141Z,32.10
2022-08-07T08:44:08.276Z,31.46
2022-08-07T08:46:44.926Z,31.45
2022-08-07T08:49:46.853Z,32.11
2022-08-07T08:52:32.143Z,30.43
2022-08-07T08:55:07.940Z,30.14
2022-08-07T08:57:42.411Z,29.75
2022-08-07T09:00:14.082Z,30.83
2022-08-07T09:03:07.561Z,30.46
2022-08-07T09:05:38.848Z,30.18
2022-08-07T09:08:37.574Z,30.39
2022-08-07T09:11:43.783Z,30.76
2022-08-07T09:14:37.631Z,27.08
2022-08-07T09:17:21.035Z,28.37
2022-08-07T09:20:35.306Z,28.68
2022-08-07T09:24:31.834Z,29.33
2022-08-07T09:26:04.577Z,29.53
2022-08-07T09:30:00.559Z,28.60
2022-08-07T09:31:57.124Z,25.81
2022-08-07T09:34:32.963Z,26.45
2022-08-07T09:37:33.658Z,26.88
2022-08-07T09:40:13.084Z,27.72
2022-08-07T09:44:03.685Z,27.83
2022-08-07T09:47:49.518Z,28.86
2022-08-07T09:50:01.670Z,29.58
2022-08-07T09:52:34.427Z,25.69
2022-08-07T09:56:03.380Z,27.14
2022-08-07T09:58:56.198Z,28.73
2022-08-07T10:02:01.672Z,25.43
2022-08-07T10:04:46.025Z,24.96
2022-08-07T10:07:58.182Z,26.29
2022-08-07T10:11:59.859Z,25.02
2022-08-07T10:14:00.534Z,25.41
2022-08-07T10:17:14.208Z,25.99
2022-08-07T10:19:53.006Z,26.45
2022-08-07T10:22:51.169Z,26.92
2022-08-07T10:25:43.077Z,25.13
2022-08-07T10:28:23.760Z,25.81
2022-08-07T10:31:18.126Z,22.36
2022-08-07T10:34:14.624Z,22.99
2022-08-07T10:36:54.109Z,22.39
2022-08-07T10:40:05.543Z,22.86
2022-08-07T10:42:52.775Z,23.23
2022-08-07T10:45:57.472Z,21.96
2022-08-07T10:48:23.888Z,22.03
2022-08-07T10:51:16.837Z,23.51
2022-08-07T10:54:10.878Z,23.13
2022-08-07T10:56:49.689Z,23.81
2022-08-07T10:59:37.791Z,22.79
2022-08-07T11:02:33.279Z,23.68
2022-08-07T11:05:05.325Z,24.29
2022-08-07T11:08:00.366Z,25.02
2022-08-07T11:10:57.868Z,23.47
2022-08-07T11:14:46.452Z,24.01
2022-08-07T11:16:34.264Z,24.57
2022-08-07T11:19:27.194Z,23.54
2022-08-07T11:22:03.260Z,24.98
2022-08-07T11:24:53.742Z,24.72
2022-08-07T11:28:02.960Z,23.38
2022-08-07T11:30:41.623Z,22.65
2022-08-07T11:33:54.372Z,23.32
2022-08-07T11:36:41.030Z,22.87
2022-08-07T11:39:59.455Z,22.66
2022-08-07T11:42:44.236Z,23.25
2022-08-07T11:45:35.794Z,23.67
2022-08-07T11:48:29.997Z,23.14
2022-08-07T11:51:10.256Z,24.25
2022-08-07T11:54:31.839Z,23.38
2022-08-07T11:57:59.575Z,24.23
2022-08-07T12:01:04.227Z,24.02
2022-08-07T12:03:57.374Z,24.25
2022-08-07T12:06:57.287Z,24.18
2022-08-07T12:09:43.180Z,25.28
2022-08-07T12:12:31.454Z,23.46
2022-08-07T12:15:08.087Z,23.29
2022-08-07T12:18:08.018Z,23.51
2022-08-07T12:20:49.387Z,23.69
2022-08-07T12:24:06.403Z,22.59
2022-08-07T12:26:47.381Z,23.00
2022-08-07T12:29:40.390Z,21.44
2022-08-07T12:32:33.076Z,22.03
2022-08-07T12:35:07.276Z,21.80
2022-08-07T12:38:09.853Z,22.61
2022-08-07T12:40:47.667Z,22.77
2022-08-07T12:44:03.357Z,23.29
2022-08-07T12:46:33.475Z,23.02
2022-08-07T12:49:39.419Z,23.35
2022-08-07T12:52:19.212Z,22.67
2022-08-07T12:55:05.108Z,22.37
2022-08-07T12:57:59.134Z,22.72
2022-08-07T13:00:50.693Z,22.65
2022-08-07T13:03:59.316Z,22.99
2022-08-07T13:06:31.493Z,23.07
2022-08-07T13:10:10.137Z,23.35
2022-08-07T13:12:29.254Z,22.90
2022-08-07T13:15:23.438Z,23.18
2022-08-07T13:18:26.771Z,22.72
2022-08-07T13:21:51.099Z,23.10
2022-08-07T13:24:29.448Z,23.39
2022-08-07T13:27:10.587Z,21.99
2022-08-07T13:30:03.565Z,23.32
2022-08-07T13:32:37.597Z,22.55
2022-08-07T13:36:00.467Z,22.37
2022-08-07T13:38:54.747Z,22.05
2022-08-07T13:41:47.501Z,22.45
2022-08-07T13:44:26.012Z,22.84
2022-08-07T13:46:59.969Z,22.81
2022-08-07T13:50:32.658Z,22.88
2022-08-07T13:52:32.397Z,22.97
2022-08-07T13:55:19.307Z,22.11
2022-08-07T13:58:28.086Z,21.72
2022-08-07T14:01:09.129Z,21.71
2022-08-07T14:04:05.411Z,21.81
2022-08-07T14:06:34.739Z,21.91
2022-08-07T14:09:05.021Z,21.63
2022-08-07T14:11:53.780Z,21.96
2022-08-07T14:14:42.000Z,22.12
2022-08-07T14:18:12.334Z,22.11
2022-08-07T14:20:41.830Z,22.07
2022-08-07T14:23:17.963Z,21.71
2022-08-07T14:26:05.758Z,21.24
2022-08-07T14:28:57.494Z,21.35
2022-08-07T14:31:42.752Z,21.46
2022-08-07T14:34:19.923Z,21.35
2022-08-07T14:36:56.245Z,21.45
2022-08-07T14:40:15.606Z,21.03
2022-08-07T14:42:18.505Z,21.23
2022-08-07T14:44:54.032Z,21.10
2022-08-07T14:47:33.770Z,21.26
2022-08-07T14:50:11.282Z,21.15
2022-08-07T14:52:41.865Z,21.27
2022-08-07T14:55:12.531Z,21.40
2022-08-07T14:57:58.683Z,20.99
2022-08-07T15:00:38.564Z,21.19
2022-08-07T15:03:19.146Z,21.25
2022-08-07T15:08:54.724Z,21.71
2022-08-07T15:11:53.849Z,21.78
2022-08-07T15:17:20.126Z,21.51
2022-08-07T15:20:32.758Z,21.63
2022-08-07T15:22:53.593Z,21.94
2022-08-07T15:25:36.851Z,21.87
2022-08-07T15:28:36.467Z,22.19
2022-08-07T15:34:02.685Z,22.27
2022-08-07T15:37:04.087Z,22.63
2022-08-07T15:39:24.503Z,22.35
2022-08-07T15:42:43.440Z,22.41
2022-08-07T15:44:53.693Z,22.42
2022-08-07T15:48:00.845Z,22.75
2022-08-07T15:53:15.424Z,22.74
2022-08-07T15:56:01.818Z,22.92
2022-08-07T15:58:38.790Z,23.10
2022-08-07T16:01:13.884Z,23.23
2022-08-07T16:03:55.696Z,23.37
2022-08-07T16:06:37.220Z,23.01
2022-08-07T16:09:12.927Z,22.94
2022-08-07T16:12:13.916Z,23.47
2022-08-07T16:15:09.029Z,23.74
2022-08-07T16:18:08.307Z,23.52
2022-08-07T16:20:55.242Z,23.29
2022-08-07T16:24:33.751Z,23.23
2022-08-07T16:27:18.031Z,23.14
2022-08-07T16:30:29.530Z,23.42
2022-08-07T16:34:01.626Z,23.37
2022-08-07T16:36:31.185Z,23.55
2022-08-07T16:39:00.832Z,23.67
2022-08-07T16:41:48.705Z,23.69
2022-08-07T16:45:24.550Z,23.65
2022-08-07T16:47:56.497Z,23.29
2022-08-07T16:51:13.508Z,23.60
2022-08-07T16:54:10.764Z,23.68
2022-08-07T16:56:45.625Z,23.33
2022-08-07T16:59:46.820Z,23.15
2022-08-07T17:02:50.879Z,23.08
2022-08-07T17:06:19.572Z,23.35
2022-08-07T17:09:15.860Z,23.48
2022-08-07T17:12:35.841Z,23.43
2022-08-07T17:15:13.089Z,22.87
2022-08-07T17:17:52.752Z,23.25
2022-08-07T17:20:29.731Z,23.17
2022-08-07T17:23:32.325Z,23.18
2022-08-07T17:26:29.962Z,23.15
2022-08-07T17:28:58.632Z,23.01
2022-08-07T17:31:44.319Z,23.32
2022-08-07T17:34:57.131Z,23.56
2022-08-07T17:38:06.802Z,23.15
2022-08-07T17:40:50.593Z,23.63
2022-08-07T17:44:00.892Z,23.51
2022-08-07T17:46:36.547Z,23.74
2022-08-07T17:49:22.839Z,23.22
2022-08-07T17:52:30.923Z,23.43
2022-08-07T17:55:16.484Z,23.60
2022-08-07T17:58:30.271Z,23.34
2022-08-07T18:01:03.099Z,23.38
2022-08-07T18:04:07.636Z,23.25
2022-08-07T18:06:43.047Z,23.53
2022-08-07T18:10:04.503Z,23.52
2022-08-07T18:12:30.492Z,23.72
2022-08-07T18:15:18.866Z,23.24
2022-08-07T18:18:46.695Z,23.38
2022-08-07T18:21:10.964Z,23.71
2022-08-07T18:24:02.052Z,23.54
2022-08-07T18:26:55.188Z,23.23
2022-08-07T18:30:06.736Z,23.12
2022-08-07T18:33:12.025Z,23.41
2022-08-07T18:36:03.685Z,23.23
2022-08-07T18:38:57.673Z,22.79
2022-08-07T18:42:05.898Z,23.16
2022-08-07T18:45:39.850Z,22.78
2022-08-07T18:48:01.021Z,23.26
2022-08-07T18:50:45.908Z,23.30
2022-08-07T18:53:41.607Z,23.53
2022-08-07T18:56:21.196Z,23.71
2022-08-07T18:59:47.563Z,24.01
2022-08-07T19:02:42.006Z,24.84
2022-08-07T19:06:02.151Z,25.16
2022-08-07T19:08:31.078Z,25.56
2022-08-07T19:11:34.797Z,25.45
2022-08-07T19:14:39.099Z,25.85
2022-08-07T19:17:57.165Z,26.56
2022-08-07T19:20:29.032Z,26.71
2022-08-07T19:23:57.128Z,26.46
2022-08-07T19:26:25.067Z,26.69
2022-08-07T19:31:03.997Z,26.41
2022-08-07T19:32:18.789Z,26.84
2022-08-07T19:34:51.298Z,27.18
2022-08-07T19:37:22.366Z,26.95
2022-08-07T19:40:02.247Z,27.14
2022-08-07T19:42:40.132Z,26.91
2022-08-07T19:45:13.588Z,27.31
2022-08-07T19:48:01.574Z,27.29
2022-08-07T19:50:45.311Z,27.41
2022-08-07T19:54:31.491Z,27.54
2022-08-07T19:56:15.169Z,27.75
2022-08-07T19:58:57.653Z,27.28
2022-08-07T20:01:43.726Z,27.17
2022-08-07T20:04:31.478Z,27.21
2022-08-07T20:07:09.364Z,27.29
2022-08-07T20:10:36.033Z,26.78
2022-08-07T20:12:40.777Z,26.65
2022-08-07T20:15:22.026Z,26.62
2022-08-07T20:18:01.593Z,26.84
2022-08-07T20:20:32.952Z,26.99
2022-08-07T20:23:22.978Z,26.96
2022-08-07T20:25:53.525Z,26.75
2022-08-07T20:28:20.990Z,26.96
2022-08-07T20:30:59.310Z,27.35
2022-08-07T20:33:37.621Z,27.02
2022-08-07T20:36:08.989Z,27.08
2022-08-07T20:38:59.316Z,27.29
2022-08-07T20:41:33.980Z,27.16
2022-08-07T20:44:12.674Z,27.46
2022-08-07T20:46:43.700Z,27.56
2022-08-07T20:49:59.424Z,27.83
2022-08-07T20:52:13.819Z,27.99
2022-08-07T20:54:53.292Z,27.94
2022-08-07T20:57:25.707Z,28.05
2022-08-07T21:00:08.064Z,27.84
2022-08-07T21:03:00.970Z,27.68
2022-08-07T21:05:50.900Z,28.25
2022-08-07T21:08:46.862Z,28.13
2022-08-07T21:11:22.130Z,28.50
2022-08-07T21:14:29.518Z,28.11
2022-08-07T21:16:56.977Z,28.34
2022-08-07T21:19:51.453Z,28.21
2022-08-07T21:22:28.209Z,28.34
2022-08-07T21:25:56.329Z,28.37
2022-08-07T21:28:56.288Z,27.97
2022-08-07T21:32:42.554Z,27.98
2022-08-07T21:34:48.184Z,28.27
2022-08-07T21:37:24.196Z,28.04
2022-08-07T21:40:06.659Z,28.11
2022-08-07T21:42:51.276Z,28.18
2022-08-07T21:46:07.573Z,28.05
2022-08-07T21:48:48.248Z,28.07
2022-08-07T21:51:27.525Z,27.63
2022-08-07T21:54:13.056Z,27.25
2022-08-07T21:57:00.316Z,27.48
2022-08-07T22:00:02.844Z,27.20
2022-08-07T22:02:41.520Z,27.26
2022-08-07T22:05:44.556Z,27.09
2022-08-07T22:08:10.260Z,27.07
2022-08-07T22:10:38.663Z,26.84
2022-08-07T22:13:14.448Z,26.72
2022-08-07T22:16:43.622Z,26.67
2022-08-07T22:19:00.978Z,26.52
2022-08-07T22:22:02.628Z,26.52
2022-08-07T22:24:36.179Z,26.49
2022-08-07T22:27:18.787Z,26.80
2022-08-07T22:30:03.461Z,26.67
2022-08-07T22:32:42.278Z,26.23
2022-08-07T22:35:12.045Z,26.72
2022-08-07T22:38:05.397Z,26.76
2022-08-07T22:40:44.990Z,26.83
2022-08-07T22:43:18.216Z,26.79
2022-08-07T22:47:02.462Z,26.33
2022-08-07T22:49:42.846Z,26.32
2022-08-07T22:52:50.028Z,26.36
2022-08-07T22:55:43.191Z,26.48
2022-08-07T22:58:55.465Z,26.52
2022-08-07T23:01:50.864Z,26.40
2022-08-07T23:04:57.050Z,26.82
2022-08-07T23:07:52.611Z,26.85
2022-08-07T23:10:57.594Z,26.66
2022-08-07T23:13:48.956Z,26.85
2022-08-07T23:16:44.518Z,26.73
2022-08-07T23:19:57.767Z,26.62
2022-08-07T23:22:52.282Z,26.92
2022-08-07T23:25:57.919Z,26.72
2022-08-07T23:28:33.988Z,26.96
2022-08-07T23:32:50.113Z,27.00
2022-08-07T23:34:41.750Z,26.85
2022-08-07T23:37:32.830Z,26.95
2022-08-07T23:40:13.029Z,27.27
2022-08-07T23:43:16.464Z,26.88
2022-08-07T23:46:01.875Z,27.39
2022-08-07T23:48:34.643Z,27.78
2022-08-07T23:53:01.446Z,27.78
2022-08-07T23:54:44.096Z,28.29
2022-08-07T23:57:27.561Z,28.49
